Time;durP1;ratioP1;P1;durP2;ratioP2;P2;SDS_P1;SDS_P2;PMS_P1;PMS_P2;Temp;Humidity;BMP_temperature;BMP_pressure;BME280_temperature;BME280_humidity;BME280_pressure;Samples;Min_cycle;Max_cycle;Signal;HPM_P1;HPM_P2
2023/05/11 00:02:34;;;;;;;3.88;3.47;;;;;;;;;;10298516;28;20091;-70
2023/05/11 00:07:32;;;;;;;6.38;3.83;;;;;;;;;;10308530;28;20099;-70
2023/05/11 00:12:30;;;;;;;6.78;3.88;;;;;;;;;;10305781;28;20068;-70
2023/05/11 00:17:30;;;;;;;4.45;3.70;;;;;;;;;;10304613;28;20080;-70
2023/05/11 00:22:28;;;;;;;5.78;3.50;;;;;;;;;;10303753;28;20693;-70
2023/05/11 00:27:26;;;;;;;6.20;3.67;;;;;;;;;;10304150;28;20064;-70
2023/05/11 00:32:25;;;;;;;5.63;3.88;;;;;;;;;;10308661;28;20064;-70
2023/05/11 00:37:24;;;;;;;11.02;3.85;;;;;;;;;;10300419;28;20780;-71
2023/05/11 00:42:23;;;;;;;5.47;4.03;;;;;;;;;;10303921;28;20091;-70
2023/05/11 00:47:21;;;;;;;5.00;3.83;;;;;;;;;;10304134;28;20083;-70
2023/05/11 00:52:19;;;;;;;3.95;3.55;;;;;;;;;;10302677;28;20071;-70
2023/05/11 00:57:20;;;;;;;6.43;4.03;;;;;;;;;;10307970;28;20079;-70
2023/05/11 01:02:18;;;;;;;5.63;3.90;;;;;;;;;;10301388;28;20136;-70
2023/05/11 01:07:19;;;;;;;8.23;3.70;;;;;;;;;;10299074;28;20446;-71
2023/05/11 01:12:27;;;;;;;4.80;4.15;;;;;;;;;;10299732;28;20079;-70
2023/05/11 01:17:30;;;;;;;4.55;4.05;;;;;;;;;;10298894;28;20079;-70
2023/05/11 01:22:34;;;;;;;8.20;4.63;;;;;;;;;;10298867;28;20071;-71
2023/05/11 01:27:42;;;;;;;10.05;6.68;;;;;;;;;;10299314;28;20068;-71
2023/05/11 01:32:42;;;;;;;10.43;6.90;;;;;;;;;;10298683;28;20074;-70
2023/05/11 01:37:41;;;;;;;17.92;15.25;;;;;;;;;;10302099;28;20056;-70
2023/05/11 01:42:41;;;;;;;6.97;5.47;;;;;;;;;;10300933;28;20068;-70
2023/05/11 01:47:43;;;;;;;8.13;4.60;;;;;;;;;;10299101;28;20098;-71
2023/05/11 01:52:42;;;;;;;7.22;5.05;;;;;;;;;;10296582;28;20486;-71
2023/05/11 01:57:40;;;;;;;7.18;4.00;;;;;;;;;;10299117;28;20075;-70
2023/05/11 02:02:40;;;;;;;4.68;3.92;;;;;;;;;;10298302;28;20053;-70
2023/05/11 02:07:42;;;;;;;7.28;4.57;;;;;;;;;;10302269;28;20083;-70
2023/05/11 02:12:41;;;;;;;7.03;4.68;;;;;;;;;;10301923;28;20464;-71
2023/05/11 02:17:40;;;;;;;6.93;5.18;;;;;;;;;;10297684;28;20076;-71
2023/05/11 02:22:40;;;;;;;9.77;5.85;;;;;;;;;;10295063;28;20090;-70
2023/05/11 02:27:39;;;;;;;7.97;4.03;;;;;;;;;;10297659;28;20076;-71
2023/05/11 02:32:42;;;;;;;8.50;3.85;;;;;;;;;;10296380;28;20094;-71
2023/05/11 02:37:43;;;;;;;9.07;4.93;;;;;;;;;;10298787;28;20079;-70
2023/05/11 02:42:45;;;;;;;7.55;4.43;;;;;;;;;;10302588;28;20088;-70
2023/05/11 02:47:47;;;;;;;5.45;4.57;;;;;;;;;;10302474;28;20082;-71
2023/05/11 02:52:54;;;;;;;6.95;4.55;;;;;;;;;;10294317;28;20084;-71
2023/05/11 02:57:53;;;;;;;14.15;5.35;;;;;;;;;;10304462;28;20174;-72
2023/05/11 03:02:52;;;;;;;6.80;4.70;;;;;;;;;;10303021;28;20080;-73
2023/05/11 03:07:57;;;;;;;9.55;5.63;;;;;;;;;;10295401;28;20076;-72
2023/05/11 03:12:56;;;;;;;5.88;4.85;;;;;;;;;;10293538;28;20076;-72
2023/05/11 03:17:55;;;;;;;6.80;5.20;;;;;;;;;;10297697;28;20126;-72
2023/05/11 03:22:55;;;;;;;10.27;5.40;;;;;;;;;;10300071;28;20131;-73
2023/05/11 03:27:54;;;;;;;45.17;32.60;;;;;;;;;;10295615;28;20072;-73
2023/05/11 03:32:52;;;;;;;20.42;11.95;;;;;;;;;;10293880;28;20068;-72
2023/05/11 03:37:52;;;;;;;12.60;7.50;;;;;;;;;;10297117;28;20493;-73
2023/05/11 03:42:56;;;;;;;10.82;7.18;;;;;;;;;;10305685;28;20079;-73
2023/05/11 03:47:56;;;;;;;11.00;6.53;;;;;;;;;;10319221;28;20076;-72
2023/05/11 03:52:55;;;;;;;10.07;6.65;;;;;;;;;;10302038;28;20076;-72
2023/05/11 03:57:53;;;;;;;9.90;7.95;;;;;;;;;;10309434;28;20075;-72
2023/05/11 04:02:54;;;;;;;8.15;6.50;;;;;;;;;;10306185;28;20084;-72
2023/05/11 04:07:52;;;;;;;13.98;8.35;;;;;;;;;;10296618;28;20080;-72
2023/05/11 04:12:51;;;;;;;13.68;8.93;;;;;;;;;;10306795;28;20083;-72
2023/05/11 04:17:52;;;;;;;12.65;6.78;;;;;;;;;;10304487;28;20471;-72
2023/05/11 04:22:51;;;;;;;8.63;5.47;;;;;;;;;;10299598;28;20076;-72
2023/05/11 04:27:49;;;;;;;6.03;5.47;;;;;;;;;;10304647;28;20064;-72
2023/05/11 04:32:47;;;;;;;13.50;5.82;;;;;;;;;;10301457;28;20083;-72
2023/05/11 04:37:46;;;;;;;8.20;5.85;;;;;;;;;;10301778;28;20437;-72
2023/05/11 04:42:45;;;;;;;23.10;15.45;;;;;;;;;;10309174;28;20584;-72
2023/05/11 04:47:47;;;;;;;12.75;6.80;;;;;;;;;;10294340;28;20482;-71
2023/05/11 04:52:45;;;;;;;9.30;4.75;;;;;;;;;;10301029;28;20071;-72
2023/05/11 04:57:43;;;;;;;10.63;6.35;;;;;;;;;;10303709;28;20068;-71
2023/05/11 05:02:43;;;;;;;8.95;6.38;;;;;;;;;;10304132;28;20075;-71
2023/05/11 05:07:41;;;;;;;8.70;4.85;;;;;;;;;;10306261;28;20064;-68
2023/05/11 05:12:40;;;;;;;6.00;3.33;;;;;;;;;;10296683;28;20080;-70
2023/05/11 05:17:39;;;;;;;5.85;3.33;;;;;;;;;;10306381;28;20075;-70
2023/05/11 05:22:38;;;;;;;4.05;3.47;;;;;;;;;;10304634;28;20182;-71
2023/05/11 05:27:37;;;;;;;5.38;2.97;;;;;;;;;;10303530;28;20076;-70
2023/05/11 05:32:38;;;;;;;4.85;3.67;;;;;;;;;;10297265;28;20463;-69
2023/05/11 05:37:36;;;;;;;5.47;3.40;;;;;;;;;;10305005;28;20091;-70
2023/05/11 05:42:37;;;;;;;4.72;3.25;;;;;;;;;;10304601;28;20072;-71
2023/05/11 05:47:36;;;;;;;6.60;4.80;;;;;;;;;;10311565;28;20084;-71
2023/05/11 05:52:35;;;;;;;7.00;3.90;;;;;;;;;;10304741;28;20077;-69
2023/05/11 05:57:33;;;;;;;4.78;3.00;;;;;;;;;;10299722;28;20084;-70
2023/05/11 06:02:34;;;;;;;5.55;3.45;;;;;;;;;;10303428;28;20083;-70
2023/05/11 06:07:33;;;;;;;3.80;2.95;;;;;;;;;;10295683;28;20103;-71
2023/05/11 06:12:32;;;;;;;7.30;3.22;;;;;;;;;;10301332;28;20472;-72
2023/05/11 06:17:31;;;;;;;5.68;2.92;;;;;;;;;;10300168;28;20147;-70
2023/05/11 06:22:31;;;;;;;13.00;4.45;;;;;;;;;;10291534;28;20496;-71
2023/05/11 06:27:30;;;;;;;8.32;3.30;;;;;;;;;;10300883;28;20175;-70
2023/05/11 06:32:29;;;;;;;8.35;4.20;;;;;;;;;;10288346;28;20094;-71
2023/05/11 06:37:33;;;;;;;6.00;3.53;;;;;;;;;;10296385;28;20079;-71
2023/05/11 06:42:33;;;;;;;;;;;;;;;;;;10295105;28;20098;-72
2023/05/11 06:47:38;;;;;;;6.72;3.42;;;;;;;;;;10299783;28;19963;-72
2023/05/11 06:52:37;;;;;;;3.35;2.90;;;;;;;;;;10298358;28;20071;-72
2023/05/11 06:57:35;;;;;;;4.55;3.25;;;;;;;;;;10295640;28;20069;-71
2023/05/11 07:02:34;;;;;;;4.97;3.45;;;;;;;;;;10294865;28;20088;-72
2023/05/11 07:07:32;;;;;;;5.38;2.75;;;;;;;;;;10296456;28;20532;-72
2023/05/11 07:12:31;;;;;;;3.38;3.05;;;;;;;;;;10295721;28;20069;-71
2023/05/11 07:17:30;;;;;;;6.75;3.30;;;;;;;;;;10295079;28;20072;-73
2023/05/11 07:22:28;;;;;;;8.43;3.30;;;;;;;;;;10297767;28;20139;-72
2023/05/11 07:27:26;;;;;;;7.18;3.42;;;;;;;;;;10296075;28;20146;-72
2023/05/11 07:32:26;;;;;;;4.82;3.05;;;;;;;;;;10295846;28;20080;-72
2023/05/11 07:37:24;;;;;;;3.83;3.17;;;;;;;;;;10293992;28;20075;-73
2023/05/11 07:42:22;;;;;;;7.40;3.25;;;;;;;;;;10296415;28;20084;-72
2023/05/11 07:47:22;;;;;;;3.67;2.65;;;;;;;;;;10293620;28;20102;-73
2023/05/11 07:52:21;;;;;;;2.88;2.35;;;;;;;;;;10291741;28;20081;-72
2023/05/11 07:57:22;;;;;;;5.10;4.57;;;;;;;;;;10295491;28;20069;-72
2023/05/11 08:02:20;;;;;;;2.78;2.40;;;;;;;;;;10295669;28;20075;-71
2023/05/11 08:07:18;;;;;;;3.60;2.05;;;;;;;;;;10294185;28;20076;-72
2023/05/11 08:12:18;;;;;;;3.65;2.10;;;;;;;;;;10293339;28;20072;-72
2023/05/11 08:17:16;;;;;;;3.30;2.50;;;;;;;;;;10293989;28;20072;-72
2023/05/11 08:22:14;;;;;;;3.72;2.00;;;;;;;;;;10296936;28;20076;-72
2023/05/11 08:27:14;;;;;;;3.95;2.45;;;;;;;;;;10298863;28;20069;-71
2023/05/11 08:32:13;;;;;;;2.92;2.30;;;;;;;;;;10298102;28;20061;-73
2023/05/11 08:37:15;;;;;;;4.35;2.13;;;;;;;;;;10296239;28;20071;-74
2023/05/11 08:42:15;;;;;;;4.63;1.90;;;;;;;;;;10299361;28;20084;-72
2023/05/11 08:47:15;;;;;;;2.20;2.00;;;;;;;;;;10300223;28;20469;-70
2023/05/11 08:52:20;;;;;;;3.95;2.28;;;;;;;;;;10300368;28;20506;-71
2023/05/11 08:57:19;;;;;;;3.50;3.03;;;;;;;;;;10298990;28;20483;-70
2023/05/11 09:02:19;;;;;;;2.17;1.95;;;;;;;;;;10301902;28;20521;-70
2023/05/11 09:07:18;;;;;;;3.22;2.72;;;;;;;;;;10302127;28;20482;-71
2023/05/11 09:12:16;;;;;;;4.82;2.10;;;;;;;;;;10299408;28;20076;-70
2023/05/11 09:17:15;;;;;;;4.45;2.00;;;;;;;;;;10299479;28;20636;-70
2023/05/11 09:22:15;;;;;;;4.93;2.05;;;;;;;;;;10298205;28;20087;-70
2023/05/11 09:27:14;;;;;;;3.33;2.03;;;;;;;;;;10300133;28;20080;-71
2023/05/11 09:32:18;;;;;;;2.70;1.73;;;;;;;;;;10301115;28;20095;-70
2023/05/11 09:37:18;;;;;;;2.20;2.00;;;;;;;;;;10298790;28;20510;-69
2023/05/11 09:42:17;;;;;;;2.28;1.65;;;;;;;;;;10297606;28;20077;-69
2023/05/11 09:47:23;;;;;;;4.55;2.17;;;;;;;;;;10296941;28;20076;-72
2023/05/11 09:52:23;;;;;;;2.33;1.77;;;;;;;;;;10294804;28;20079;-70
2023/05/11 09:57:26;;;;;;;4.50;2.05;;;;;;;;;;10296758;28;20080;-69
2023/05/11 10:02:24;;;;;;;3.33;2.17;;;;;;;;;;10300008;28;20079;-69
2023/05/11 10:07:25;;;;;;;3.05;1.88;;;;;;;;;;10298821;28;20071;-69
2023/05/11 10:12:26;;;;;;;2.30;2.10;;;;;;;;;;10296145;28;20143;-69
2023/05/11 10:17:25;;;;;;;2.00;1.80;;;;;;;;;;10299123;28;20076;-69
2023/05/11 10:22:25;;;;;;;3.95;2.20;;;;;;;;;;10297192;28;20080;-69
2023/05/11 10:27:24;;;;;;;4.80;3.50;;;;;;;;;;10298081;28;20064;-69
2023/05/11 10:32:22;;;;;;;5.70;1.98;;;;;;;;;;10295871;28;20505;-69
2023/05/11 10:37:21;;;;;;;2.90;2.60;;;;;;;;;;10298375;28;20528;-70
2023/05/11 10:42:32;;;;;;;2.00;1.80;;;;;;;;;;10297765;28;20076;-69
2023/05/11 10:47:45;;;;;;;3.88;1.70;;;;;;;;;;10296838;28;20083;-70
2023/05/11 10:52:50;;;;;;;4.60;1.80;;;;;;;;;;10292590;28;20083;-70
2023/05/11 10:57:56;;;;;;;5.57;2.30;;;;;;;;;;10294912;28;20075;-70
2023/05/11 11:02:54;;;;;;;2.97;2.00;;;;;;;;;;10290693;28;20069;-70
2023/05/11 11:07:59;;;;;;;2.28;2.08;;;;;;;;;;10298639;28;20064;-69
2023/05/11 11:13:09;;;;;;;2.95;2.03;;;;;;;;;;10310595;28;20174;-70
2023/05/11 11:18:19;;;;;;;4.82;2.33;;;;;;;;;;10295216;28;20473;-70
2023/05/11 11:23:38;;;;;;;2.45;2.25;;;;;;;;;;10295669;28;20083;-70
2023/05/11 11:28:55;;;;;;;2.22;1.90;;;;;;;;;;10296992;28;20064;-71
2023/05/11 11:33:57;;;;;;;3.42;2.38;;;;;;;;;;10294165;28;20071;-70
2023/05/11 11:39:00;;;;;;;3.08;2.17;;;;;;;;;;10295810;28;20064;-70
2023/05/11 11:43:58;;;;;;;3.08;2.80;;;;;;;;;;10296357;28;20064;-71
2023/05/11 11:49:08;;;;;;;2.67;1.90;;;;;;;;;;10291260;28;20087;-71
2023/05/11 11:54:06;;;;;;;2.25;2.05;;;;;;;;;;10292882;28;20068;-74
2023/05/11 11:59:09;;;;;;;3.08;2.08;;;;;;;;;;10298707;28;20076;-73
2023/05/11 12:04:25;;;;;;;4.60;2.13;;;;;;;;;;10301527;28;20068;-71
2023/05/11 12:09:26;;;;;;;3.35;2.67;;;;;;;;;;10303034;28;20482;-71
2023/05/11 12:14:25;;;;;;;3.95;2.13;;;;;;;;;;10302401;28;20087;-72
2023/05/11 12:19:24;;;;;;;3.08;2.10;;;;;;;;;;10302829;28;20521;-72
2023/05/11 12:24:22;;;;;;;4.07;1.85;;;;;;;;;;10302293;28;20069;-72
2023/05/11 12:29:21;;;;;;;3.90;2.20;;;;;;;;;;10302723;28;20077;-72
2023/05/11 12:34:20;;;;;;;2.38;1.85;;;;;;;;;;10301710;28;20461;-72
2023/05/11 12:39:19;;;;;;;2.00;1.85;;;;;;;;;;10302592;28;20067;-72
2023/05/11 12:44:18;;;;;;;4.93;2.20;;;;;;;;;;10299812;28;20075;-72
2023/05/11 12:49:19;;;;;;;2.08;1.88;;;;;;;;;;10299613;28;20068;-73
2023/05/11 12:54:27;;;;;;;5.15;1.90;;;;;;;;;;10300498;28;20477;-72
2023/05/11 12:59:27;;;;;;;5.72;1.80;;;;;;;;;;10300467;28;20072;-73
2023/05/11 13:04:30;;;;;;;3.15;2.40;;;;;;;;;;10301314;28;20071;-72
2023/05/11 13:09:28;;;;;;;2.20;1.88;;;;;;;;;;10300312;28;20076;-73
2023/05/11 13:14:31;;;;;;;2.20;1.98;;;;;;;;;;10300570;28;20076;-73
2023/05/11 13:19:32;;;;;;;4.30;1.75;;;;;;;;;;10298953;28;20072;-73
2023/05/11 13:24:30;;;;;;;1.75;1.65;;;;;;;;;;10301281;28;20072;-73
2023/05/11 13:29:31;;;;;;;3.03;1.90;;;;;;;;;;10300339;28;20080;-73
2023/05/11 13:34:31;;;;;;;2.38;1.95;;;;;;;;;;10298186;28;20064;-72
2023/05/11 13:39:29;;;;;;;5.30;2.30;;;;;;;;;;10297158;28;20069;-73
2023/05/11 13:44:28;;;;;;;8.93;2.53;;;;;;;;;;10299804;28;20060;-73
2023/05/11 13:49:26;;;;;;;2.03;1.80;;;;;;;;;;10299211;28;20064;-72
2023/05/11 13:54:26;;;;;;;3.83;1.63;;;;;;;;;;10297791;28;20084;-73
2023/05/11 13:59:24;;;;;;;3.65;1.70;;;;;;;;;;10297411;28;20068;-72
2023/05/11 14:04:22;;;;;;;3.08;1.95;;;;;;;;;;10299366;28;20068;-71
2023/05/11 14:09:22;;;;;;;6.45;2.47;;;;;;;;;;10299900;28;20080;-71
2023/05/11 14:14:22;;;;;;;3.88;2.08;;;;;;;;;;10298118;28;20647;-73
2023/05/11 14:19:20;;;;;;;2.13;1.92;;;;;;;;;;10296422;28;20076;-73
2023/05/11 14:24:19;;;;;;;4.80;2.53;;;;;;;;;;10298018;28;20068;-72
2023/05/11 14:29:17;;;;;;;2.88;1.77;;;;;;;;;;10297650;28;20068;-72
2023/05/11 14:34:17;;;;;;;3.67;2.33;;;;;;;;;;10297771;28;20085;-72
2023/05/11 14:39:15;;;;;;;2.33;2.13;;;;;;;;;;10294054;28;20068;-72
2023/05/11 14:44:13;;;;;;;2.47;1.70;;;;;;;;;;10298102;28;20072;-72
2023/05/11 14:49:11;;;;;;;5.10;2.50;;;;;;;;;;10295591;28;20099;-71
2023/05/11 14:54:11;;;;;;;2.20;2.00;;;;;;;;;;10301207;28;20088;-73
2023/05/11 14:59:09;;;;;;;2.85;2.10;;;;;;;;;;10299145;28;20081;-72
2023/05/11 15:04:07;;;;;;;3.92;1.85;;;;;;;;;;10292618;28;20064;-72
2023/05/11 15:09:05;;;;;;;3.50;2.80;;;;;;;;;;10298017;28;20068;-73
2023/05/11 15:14:05;;;;;;;5.35;2.67;;;;;;;;;;10299575;28;20770;-72
2023/05/11 15:19:04;;;;;;;3.28;2.33;;;;;;;;;;10297249;28;20541;-73
2023/05/11 15:24:02;;;;;;;5.85;3.00;;;;;;;;;;10295391;28;20067;-73
2023/05/11 15:29:00;;;;;;;6.25;4.65;;;;;;;;;;10304166;28;20285;-71
2023/05/11 15:34:01;;;;;;;7.43;4.13;;;;;;;;;;10310390;28;20064;-70
2023/05/11 15:39:00;;;;;;;7.15;4.50;;;;;;;;;;10309087;28;20072;-71
2023/05/11 15:43:58;;;;;;;16.48;13.65;;;;;;;;;;10310672;28;20071;-69
2023/05/11 15:49:03;;;;;;;9.02;7.00;;;;;;;;;;10303304;28;20076;-72
2023/05/11 15:54:03;;;;;;;6.80;4.25;;;;;;;;;;10303075;28;20084;-71
2023/05/11 15:59:01;;;;;;;4.82;3.15;;;;;;;;;;10307990;28;20083;-72
2023/05/11 16:04:00;;;;;;;3.10;2.53;;;;;;;;;;10305686;28;20072;-71
2023/05/11 16:08:58;;;;;;;2.58;2.00;;;;;;;;;;10303855;28;20064;-71
2023/05/11 16:13:58;;;;;;;3.35;2.33;;;;;;;;;;10302302;28;20084;-70
2023/05/11 16:18:57;;;;;;;10.65;2.13;;;;;;;;;;10304036;28;20477;-70
2023/05/11 16:23:58;;;;;;;4.60;3.67;;;;;;;;;;10301497;28;20060;-67
2023/05/11 16:29:01;;;;;;;6.22;1.90;;;;;;;;;;10296643;28;20076;-69
2023/05/11 16:34:06;;;;;;;7.05;2.72;;;;;;;;;;10295868;28;20083;-70
2023/05/11 16:39:04;;;;;;;4.03;2.05;;;;;;;;;;10297126;28;20079;-68
2023/05/11 16:44:04;;;;;;;2.20;2.00;;;;;;;;;;10300706;28;20100;-68
2023/05/11 16:49:03;;;;;;;2.60;2.40;;;;;;;;;;10300334;28;20469;-68
2023/05/11 16:54:01;;;;;;;3.10;2.80;;;;;;;;;;10289939;28;20072;-71
2023/05/11 16:59:02;;;;;;;6.65;2.60;;;;;;;;;;10295008;28;20479;-70
2023/05/11 17:04:03;;;;;;;3.80;2.38;;;;;;;;;;10299813;28;20061;-70
2023/05/11 17:09:01;;;;;;;4.22;2.38;;;;;;;;;;10297503;28;20290;-70
2023/05/11 17:14:01;;;;;;;7.00;3.20;;;;;;;;;;10303861;28;20072;-71
2023/05/11 17:18:59;;;;;;;3.10;2.70;;;;;;;;;;10304228;28;20080;-73
2023/05/11 17:23:59;;;;;;;6.13;3.67;;;;;;;;;;10298585;28;20063;-71
2023/05/11 17:28:59;;;;;;;7.90;6.72;;;;;;;;;;10298895;28;20068;-70
2023/05/11 17:34:01;;;;;;;2.95;2.33;;;;;;;;;;10303565;28;20067;-68
2023/05/11 17:39:04;;;;;;;2.92;2.35;;;;;;;;;;10299444;28;20068;-68
2023/05/11 17:44:03;;;;;;;4.88;2.70;;;;;;;;;;10297788;28;20086;-68
2023/05/11 17:49:01;;;;;;;3.50;2.83;;;;;;;;;;10298589;28;20080;-69
2023/05/11 17:54:01;;;;;;;3.97;3.00;;;;;;;;;;10291650;28;20071;-71
2023/05/11 17:59:01;;;;;;;3.72;3.40;;;;;;;;;;10306725;28;20493;-70
2023/05/11 18:03:59;;;;;;;4.05;2.40;;;;;;;;;;10299107;28;20096;-71
2023/05/11 18:08:59;;;;;;;2.72;2.53;;;;;;;;;;10296067;28;20076;-70
2023/05/11 18:13:59;;;;;;;4.22;2.70;;;;;;;;;;10298427;28;20528;-69
2023/05/11 18:19:00;;;;;;;2.90;2.50;;;;;;;;;;10302890;28;21373;-71
2023/05/11 18:23:58;;;;;;;3.55;2.85;;;;;;;;;;10292582;28;20075;-71
2023/05/11 18:28:56;;;;;;;3.60;2.05;;;;;;;;;;10298367;28;20095;-71
2023/05/11 18:33:55;;;;;;;7.22;2.47;;;;;;;;;;10291816;28;20172;-70
2023/05/11 18:38:55;;;;;;;4.28;2.47;;;;;;;;;;10293276;28;20076;-71
2023/05/11 18:43:55;;;;;;;3.45;2.42;;;;;;;;;;10300109;28;20072;-69
2023/05/11 18:48:57;;;;;;;4.40;2.50;;;;;;;;;;10294541;28;20079;-70
2023/05/11 18:53:56;;;;;;;3.90;2.63;;;;;;;;;;10293626;28;20132;-69
2023/05/11 18:58:54;;;;;;;4.22;3.10;;;;;;;;;;10296967;28;20508;-69
2023/05/11 19:03:53;;;;;;;23.98;21.88;;;;;;;;;;10293979;28;20064;-69
2023/05/11 19:08:59;;;;;;;4.30;3.70;;;;;;;;;;10290242;28;20063;-68
2023/05/11 19:13:58;;;;;;;7.47;2.50;;;;;;;;;;10298130;28;20160;-69
2023/05/11 19:18:56;;;;;;;37.42;34.05;;;;;;;;;;10295729;28;20518;-71
2023/05/11 19:23:54;;;;;;;4.07;2.80;;;;;;;;;;10296793;28;20064;-71
2023/05/11 19:28:53;;;;;;;4.55;2.33;;;;;;;;;;10295818;28;20064;-72
2023/05/11 19:33:53;;;;;;;4.15;2.60;;;;;;;;;;10297799;28;20072;-70
2023/05/11 19:38:51;;;;;;;2.55;2.33;;;;;;;;;;10301068;28;20502;-70
2023/05/11 19:43:49;;;;;;;3.97;2.20;;;;;;;;;;10291777;28;20065;-70
2023/05/11 19:48:49;;;;;;;3.42;2.47;;;;;;;;;;10300052;28;20052;-70
2023/05/11 19:53:47;;;;;;;4.20;2.35;;;;;;;;;;10288084;28;20069;-68
2023/05/11 19:58:45;;;;;;;3.75;2.80;;;;;;;;;;10297803;28;20072;-69
2023/05/11 20:03:43;;;;;;;5.10;2.80;;;;;;;;;;10298758;28;20552;-69
2023/05/11 20:08:43;;;;;;;2.70;2.47;;;;;;;;;;10300566;28;20072;-70
2023/05/11 20:13:48;;;;;;;3.00;2.70;;;;;;;;;;10288999;28;20064;-69
2023/05/11 20:18:46;;;;;;;4.50;2.38;;;;;;;;;;10302400;28;20426;-68
2023/05/11 20:23:46;;;;;;;4.60;2.33;;;;;;;;;;10299880;28;20076;-69
2023/05/11 20:28:44;;;;;;;3.28;2.42;;;;;;;;;;10295085;28;20077;-70
2023/05/11 20:33:45;;;;;;;2.35;2.13;;;;;;;;;;10304443;28;20517;-70
2023/05/11 20:38:48;;;;;;;5.33;2.27;;;;;;;;;;10305207;28;20110;-69
2023/05/11 20:43:46;;;;;;;5.13;2.83;;;;;;;;;;10306077;28;20877;-69
2023/05/11 20:48:44;;;;;;;12.15;6.55;;;;;;;;;;10301065;28;20434;-69
2023/05/11 20:53:50;;;;;;;5.68;2.40;;;;;;;;;;10298707;28;20064;-68
2023/05/11 20:58:50;;;;;;;4.60;3.03;;;;;;;;;;10299273;28;20064;-70
2023/05/11 21:03:50;;;;;;;5.07;3.15;;;;;;;;;;10310806;28;20072;-69
2023/05/11 21:08:49;;;;;;;5.25;3.13;;;;;;;;;;10305752;28;20516;-70
2023/05/11 21:13:48;;;;;;;2.53;2.20;;;;;;;;;;10300887;28;20490;-69
2023/05/11 21:18:47;;;;;;;5.28;3.10;;;;;;;;;;10300650;28;20084;-70
2023/05/11 21:23:45;;;;;;;6.28;2.88;;;;;;;;;;10303306;28;20067;-70
2023/05/11 21:28:44;;;;;;;4.75;3.10;;;;;;;;;;10297251;28;20099;-70
2023/05/11 21:33:46;;;;;;;3.75;3.17;;;;;;;;;;10294877;28;20099;-71
2023/05/11 21:38:44;;;;;;;3.85;2.88;;;;;;;;;;10298517;28;20502;-69
2023/05/11 21:43:43;;;;;;;3.75;3.17;;;;;;;;;;10304431;28;20080;-70
2023/05/11 21:48:41;;;;;;;8.82;3.92;;;;;;;;;;10304130;28;20067;-70
2023/05/11 21:53:40;;;;;;;6.18;3.00;;;;;;;;;;10302930;28;20068;-70
2023/05/11 21:58:39;;;;;;;3.88;3.45;;;;;;;;;;10297437;28;20078;-70
2023/05/11 22:03:39;;;;;;;4.18;3.05;;;;;;;;;;10296848;28;20496;-70
2023/05/11 22:08:38;;;;;;;7.38;3.20;;;;;;;;;;10297270;28;20087;-70
2023/05/11 22:13:37;;;;;;;4.55;3.80;;;;;;;;;;10300939;28;20064;-70
2023/05/11 22:18:35;;;;;;;4.13;3.67;;;;;;;;;;10300857;28;20084;-70
2023/05/11 22:23:34;;;;;;;4.13;3.50;;;;;;;;;;10299066;28;20072;-70
2023/05/11 22:28:32;;;;;;;5.03;3.83;;;;;;;;;;10299535;28;20076;-69
2023/05/11 22:33:32;;;;;;;4.10;3.20;;;;;;;;;;10300249;28;20083;-70
2023/05/11 22:38:31;;;;;;;7.68;3.65;;;;;;;;;;10301494;28;20064;-70
2023/05/11 22:43:29;;;;;;;3.90;2.97;;;;;;;;;;10303886;28;20075;-71
2023/05/11 22:48:27;;;;;;;6.15;3.38;;;;;;;;;;10297290;28;20434;-70
2023/05/11 22:53:28;;;;;;;5.45;3.63;;;;;;;;;;10300639;28;20476;-71
2023/05/11 22:58:27;;;;;;;4.50;3.70;;;;;;;;;;10295631;28;20069;-70
2023/05/11 23:03:25;;;;;;;4.35;2.90;;;;;;;;;;10300754;28;20420;-70
2023/05/11 23:08:25;;;;;;;4.50;3.60;;;;;;;;;;10299598;28;20065;-70
2023/05/11 23:13:25;;;;;;;4.75;3.47;;;;;;;;;;10299727;28;20080;-70
2023/05/11 23:18:23;;;;;;;4.35;3.20;;;;;;;;;;10298562;28;20080;-71
2023/05/11 23:23:21;;;;;;;7.50;3.72;;;;;;;;;;10298975;28;20080;-71
2023/05/11 23:28:20;;;;;;;4.30;3.65;;;;;;;;;;10299455;28;20078;-71
2023/05/11 23:33:22;;;;;;;9.38;3.70;;;;;;;;;;10298552;28;20081;-70
2023/05/11 23:38:20;;;;;;;6.68;3.38;;;;;;;;;;10288384;28;20068;-70
2023/05/11 23:43:18;;;;;;;4.18;3.10;;;;;;;;;;10297175;28;20079;-71
2023/05/11 23:48:16;;;;;;;6.30;3.42;;;;;;;;;;10297094;28;20079;-70
2023/05/11 23:53:16;;;;;;;8.30;3.28;;;;;;;;;;10296357;28;20044;-69
2023/05/11 23:58:14;;;;;;;4.38;3.60;;;;;;;;;;10297418;28;20067;-70
